Time;durP1;ratioP1;P1;durP2;ratioP2;P2;SDS_P1;SDS_P2;PMS_P1;PMS_P2;Temp;Humidity;BMP_temperature;BMP_pressure;BME280_temperature;BME280_humidity;BME280_pressure;Samples;Min_cycle;Max_cycle;Signal;HPM_P1;HPM_P2
2023/05/29 00:01:25;;;;;;;39.33;16.80;;;;;;;;;;6161804;23;20506;-80
2023/05/29 00:03:51;;;;;;;38.15;16.67;;;;;;;;;;6186538;23;20017;-77
2023/05/29 00:06:16;;;;;;;43.15;16.27;;;;;;;;;;6162078;23;19996;-79
2023/05/29 00:08:42;;;;;;;38.55;16.52;;;;;;;;;;6213443;23;20040;-80
2023/05/29 00:11:08;;;;;;;45.53;15.18;;;;;;;;;;6162267;23;20011;-78
2023/05/29 00:13:33;;;;;;;44.67;15.38;;;;;;;;;;6185980;23;20009;-80
2023/05/29 00:16:00;;;;;;;29.77;15.48;;;;;;;;;;6186734;23;20004;-80
2023/05/29 00:18:26;;;;;;;39.95;15.70;;;;;;;;;;6187018;23;20000;-80
2023/05/29 00:20:52;;;;;;;47.15;16.15;;;;;;;;;;6186961;23;20054;-79
2023/05/29 00:23:18;;;;;;;43.50;16.85;;;;;;;;;;6213155;23;20450;-78
2023/05/29 00:25:43;;;;;;;38.35;14.85;;;;;;;;;;6186739;23;20005;-77
2023/05/29 00:28:09;;;;;;;40.55;16.75;;;;;;;;;;6161776;23;20055;-78
2023/05/29 00:30:34;;;;;;;50.63;17.05;;;;;;;;;;6186778;23;20001;-79
2023/05/29 00:33:00;;;;;;;38.83;18.70;;;;;;;;;;6213234;23;20443;-81
2023/05/29 00:35:25;;;;;;;51.53;20.17;;;;;;;;;;6161714;23;20004;-79
2023/05/29 00:37:51;;;;;;;42.15;19.70;;;;;;;;;;6162100;23;20009;-79
2023/05/29 00:40:16;;;;;;;50.55;21.98;;;;;;;;;;6161832;23;20483;-79
2023/05/29 00:42:42;;;;;;;57.70;22.85;;;;;;;;;;6161468;23;20005;-80
2023/05/29 00:45:08;;;;;;;58.95;26.50;;;;;;;;;;6186759;23;20012;-79
2023/05/29 00:47:33;;;;;;;65.03;26.90;;;;;;;;;;6161931;23;20083;-80
2023/05/29 00:49:58;;;;;;;62.58;26.92;;;;;;;;;;6213068;23;20109;-79
2023/05/29 00:52:25;;;;;;;62.60;28.77;;;;;;;;;;6161764;23;20323;-78
2023/05/29 00:54:50;;;;;;;70.82;28.70;;;;;;;;;;6162339;23;20127;-78
2023/05/29 00:57:15;;;;;;;65.70;28.77;;;;;;;;;;6186152;23;20424;-78
2023/05/29 00:59:41;;;;;;;63.33;27.27;;;;;;;;;;6162764;23;20494;-78
2023/05/29 01:02:08;;;;;;;63.30;27.17;;;;;;;;;;6163804;23;20008;-78
2023/05/29 01:04:33;;;;;;;70.32;28.08;;;;;;;;;;6164072;23;20011;-78
2023/05/29 01:07:00;;;;;;;64.07;26.08;;;;;;;;;;6163757;23;19996;-78
2023/05/29 01:09:25;;;;;;;57.42;24.27;;;;;;;;;;6188436;23;20424;-79
2023/05/29 01:12:08;;;;;;;54.47;25.10;;;;;;;;;;6188193;23;20058;-79
2023/05/29 01:15:04;;;;;;;54.22;24.02;;;;;;;;;;6188684;23;20010;-79
2023/05/29 01:17:47;;;;;;;45.42;21.35;;;;;;;;;;6214800;23;20005;-79
2023/05/29 01:20:41;;;;;;;48.22;19.83;;;;;;;;;;6188332;23;20004;-79
2023/05/29 01:23:11;;;;;;;50.92;22.63;;;;;;;;;;6166509;23;20001;-79
2023/05/29 01:25:58;;;;;;;42.67;20.38;;;;;;;;;;6189348;23;20083;-78
2023/05/29 01:28:26;;;;;;;43.70;19.83;;;;;;;;;;6214259;23;20003;-79
2023/05/29 01:30:51;;;;;;;48.30;19.58;;;;;;;;;;6164052;23;20507;-80
2023/05/29 01:33:17;;;;;;;40.00;19.90;;;;;;;;;;6188132;23;20004;-80
2023/05/29 01:35:42;;;;;;;43.47;20.23;;;;;;;;;;6163497;23;20005;-79
2023/05/29 01:38:07;;;;;;;48.65;20.83;;;;;;;;;;6188209;23;19997;-79
2023/05/29 01:40:33;;;;;;;59.33;21.63;;;;;;;;;;6163108;23;20020;-79
2023/05/29 01:42:59;;;;;;;42.22;20.50;;;;;;;;;;6138811;23;20000;-79
2023/05/29 01:45:24;;;;;;;47.40;21.33;;;;;;;;;;6188280;23;20004;-79
2023/05/29 01:47:50;;;;;;;44.60;20.70;;;;;;;;;;6163084;23;20092;-79
2023/05/29 01:50:16;;;;;;;50.30;21.20;;;;;;;;;;6164077;23;20466;-79
2023/05/29 01:52:41;;;;;;;54.53;19.88;;;;;;;;;;6163105;23;20001;-79
2023/05/29 01:55:07;;;;;;;49.03;20.40;;;;;;;;;;6138557;23;20347;-79
2023/05/29 01:57:33;;;;;;;40.92;19.27;;;;;;;;;;6163179;23;20083;-79
2023/05/29 01:59:58;;;;;;;60.65;20.50;;;;;;;;;;6162895;23;20009;-80
2023/05/29 02:02:24;;;;;;;49.25;20.45;;;;;;;;;;6163069;23;20032;-80
2023/05/29 02:04:49;;;;;;;53.30;21.02;;;;;;;;;;6163248;23;20005;-81
2023/05/29 02:07:15;;;;;;;45.83;21.95;;;;;;;;;;6187978;23;20019;-80
2023/05/29 02:09:40;;;;;;;51.47;20.23;;;;;;;;;;6187512;23;20004;-80
2023/05/29 02:12:07;;;;;;;43.47;19.80;;;;;;;;;;6163191;23;20084;-79
2023/05/29 02:14:32;;;;;;;42.40;19.48;;;;;;;;;;6187904;23;20000;-79
2023/05/29 02:16:58;;;;;;;44.40;18.00;;;;;;;;;;6162892;23;20012;-79
2023/05/29 02:19:25;;;;;;;44.47;19.15;;;;;;;;;;6214064;23;20397;-79
2023/05/29 02:21:50;;;;;;;41.17;18.10;;;;;;;;;;6214224;23;20012;-78
2023/05/29 02:24:16;;;;;;;38.30;17.67;;;;;;;;;;6214126;23;20638;-80
2023/05/29 02:26:42;;;;;;;43.28;18.80;;;;;;;;;;6214229;23;20445;-80
2023/05/29 02:29:07;;;;;;;46.67;19.45;;;;;;;;;;6187651;23;20371;-80
2023/05/29 02:31:33;;;;;;;45.20;18.35;;;;;;;;;;6214116;23;20067;-80
2023/05/29 02:33:58;;;;;;;38.45;17.15;;;;;;;;;;6187813;23;20281;-79
2023/05/29 02:36:24;;;;;;;32.97;16.38;;;;;;;;;;6187444;23;20001;-79
2023/05/29 02:38:49;;;;;;;45.05;17.27;;;;;;;;;;6213805;23;20011;-79
2023/05/29 02:41:15;;;;;;;32.80;16.85;;;;;;;;;;6187882;23;20329;-79
2023/05/29 02:43:40;;;;;;;32.00;15.73;;;;;;;;;;6187722;23;19992;-79
2023/05/29 02:46:06;;;;;;;38.63;16.38;;;;;;;;;;6187628;23;20008;-80
2023/05/29 02:48:31;;;;;;;34.80;16.23;;;;;;;;;;6162684;23;20011;-79
2023/05/29 02:50:56;;;;;;;43.80;17.08;;;;;;;;;;6214090;23;20000;-79
2023/05/29 02:53:22;;;;;;;37.42;16.67;;;;;;;;;;6213662;23;20420;-80
2023/05/29 02:55:48;;;;;;;33.53;16.23;;;;;;;;;;6213695;23;19997;-79
2023/05/29 02:58:16;;;;;;;35.10;16.60;;;;;;;;;;6213947;23;20066;-79
2023/05/29 03:00:41;;;;;;;42.65;16.65;;;;;;;;;;6213898;23;20396;-78
2023/05/29 03:03:07;;;;;;;39.20;17.77;;;;;;;;;;6213883;23;20074;-79
2023/05/29 03:05:32;;;;;;;37.13;16.27;;;;;;;;;;6162392;23;20351;-79
2023/05/29 03:08:01;;;;;;;39.83;17.60;;;;;;;;;;6186685;23;20107;-78
2023/05/29 03:10:27;;;;;;;35.00;17.65;;;;;;;;;;6187597;23;20020;-80
2023/05/29 03:12:54;;;;;;;43.17;16.75;;;;;;;;;;6163607;23;20025;-79
2023/05/29 03:15:20;;;;;;;34.90;17.30;;;;;;;;;;6187154;23;20011;-80
2023/05/29 03:17:46;;;;;;;34.30;17.58;;;;;;;;;;6213530;23;20028;-80
2023/05/29 03:20:11;;;;;;;41.63;18.55;;;;;;;;;;6187115;23;20036;-79
2023/05/29 03:22:37;;;;;;;37.13;18.20;;;;;;;;;;6213358;23;20004;-80
2023/05/29 03:25:03;;;;;;;33.75;17.60;;;;;;;;;;6162282;23;20424;-78
2023/05/29 03:27:29;;;;;;;41.97;18.20;;;;;;;;;;6213628;23;20024;-80
2023/05/29 03:29:55;;;;;;;36.15;18.30;;;;;;;;;;6186912;23;20001;-79
2023/05/29 03:32:20;;;;;;;39.33;18.20;;;;;;;;;;6213571;23;20084;-79
2023/05/29 03:34:47;;;;;;;40.58;19.80;;;;;;;;;;6162012;23;20074;-79
2023/05/29 03:37:13;;;;;;;37.83;18.23;;;;;;;;;;6186776;23;20051;-78
2023/05/29 03:39:38;;;;;;;42.28;18.05;;;;;;;;;;6187018;23;20016;-78
2023/05/29 03:42:04;;;;;;;42.92;18.35;;;;;;;;;;6186717;23;20019;-77
2023/05/29 03:44:29;;;;;;;43.08;18.15;;;;;;;;;;6162315;23;20036;-78
2023/05/29 03:46:55;;;;;;;33.22;16.00;;;;;;;;;;6186604;23;20008;-78
2023/05/29 03:49:20;;;;;;;42.35;17.40;;;;;;;;;;6186474;23;20013;-79
2023/05/29 03:51:45;;;;;;;33.15;17.08;;;;;;;;;;6186189;23;20083;-79
2023/05/29 03:54:11;;;;;;;34.42;16.05;;;;;;;;;;6186726;23;20004;-79
2023/05/29 03:56:36;;;;;;;38.00;16.95;;;;;;;;;;6187185;23;20066;-79
2023/05/29 03:59:02;;;;;;;41.92;16.67;;;;;;;;;;6212778;23;20428;-80
2023/05/29 04:01:27;;;;;;;30.90;15.88;;;;;;;;;;6213002;23;20004;-79
2023/05/29 04:03:53;;;;;;;48.00;16.10;;;;;;;;;;6137165;23;20009;-79
2023/05/29 04:06:18;;;;;;;34.72;15.93;;;;;;;;;;6161702;23;20000;-80
2023/05/29 04:08:44;;;;;;;31.20;15.70;;;;;;;;;;6186590;23;20347;-79
2023/05/29 04:11:11;;;;;;;36.75;15.88;;;;;;;;;;6186786;23;20127;-81
2023/05/29 04:13:37;;;;;;;29.77;15.48;;;;;;;;;;6162361;23;20016;-79
2023/05/29 04:16:03;;;;;;;32.00;15.80;;;;;;;;;;6212866;23;20000;-79
2023/05/29 04:18:28;;;;;;;34.33;15.70;;;;;;;;;;6213177;23;20153;-79
2023/05/29 04:20:54;;;;;;;43.08;15.77;;;;;;;;;;6186490;23;20075;-79
2023/05/29 04:23:20;;;;;;;32.85;14.77;;;;;;;;;;6213395;23;20012;-80
2023/05/29 04:25:45;;;;;;;30.05;14.85;;;;;;;;;;6212968;23;19997;-81
2023/05/29 04:28:11;;;;;;;32.38;14.25;;;;;;;;;;6186590;23;20653;-79
2023/05/29 04:30:38;;;;;;;31.75;15.15;;;;;;;;;;6212520;23;20001;-79
2023/05/29 04:33:04;;;;;;;34.10;15.02;;;;;;;;;;6162466;23;20380;-86
2023/05/29 04:35:30;;;;;;;34.35;15.48;;;;;;;;;;6214503;23;20051;-84
2023/05/29 04:37:56;;;;;;;31.50;14.70;;;;;;;;;;6215131;23;20005;-84
2023/05/29 04:40:21;;;;;;;36.17;14.43;;;;;;;;;;6188825;23;20004;-84
2023/05/29 04:42:48;;;;;;;56.00;21.70;;;;;;;;;;6165989;23;20079;-84
2023/05/29 04:45:13;;;;;;;51.03;18.50;;;;;;;;;;6158008;23;20027;-84
2023/05/29 04:47:45;;;;;;;42.08;16.38;;;;;;;;;;6160725;23;20436;-83
2023/05/29 04:50:14;;;;;;;27.10;14.90;;;;;;;;;;6187251;23;20424;-83
2023/05/29 04:53:00;;;;;;;42.90;14.82;;;;;;;;;;6185578;23;20348;-82
2023/05/29 04:55:43;;;;;;;28.83;14.82;;;;;;;;;;6164580;23;20024;-86
2023/05/29 04:58:12;;;;;;;32.35;14.27;;;;;;;;;;6217539;23;20083;-84
2023/05/29 05:00:38;;;;;;;37.47;14.32;;;;;;;;;;6159499;23;20004;-83
2023/05/29 05:03:04;;;;;;;33.50;14.80;;;;;;;;;;6160470;23;20023;-84
2023/05/29 05:05:29;;;;;;;31.27;15.23;;;;;;;;;;6207160;23;20358;-82
2023/05/29 05:08:01;;;;;;;30.33;15.38;;;;;;;;;;6209140;23;20008;-82
2023/05/29 05:10:26;;;;;;;30.30;15.80;;;;;;;;;;6191588;23;20000;-82
2023/05/29 05:13:07;;;;;;;33.35;16.42;;;;;;;;;;6189045;23;20455;-85
2023/05/29 05:15:32;;;;;;;39.42;16.95;;;;;;;;;;6198269;23;20005;-84
2023/05/29 05:17:58;;;;;;;34.28;15.93;;;;;;;;;;6220776;23;20007;-85
2023/05/29 05:20:26;;;;;;;34.10;16.40;;;;;;;;;;6197434;23;20039;-85
2023/05/29 05:22:52;;;;;;;38.60;16.45;;;;;;;;;;6172626;23;20053;-85
2023/05/29 05:25:20;;;;;;;38.35;20.63;;;;;;;;;;6186503;23;20004;-84
2023/05/29 05:27:46;;;;;;;35.72;17.15;;;;;;;;;;6209411;23;20063;-83
2023/05/29 05:30:13;;;;;;;29.88;16.13;;;;;;;;;;6182928;23;20013;-83
2023/05/29 05:32:38;;;;;;;32.70;16.33;;;;;;;;;;6211397;23;20502;-83
2023/05/29 05:35:04;;;;;;;43.63;16.35;;;;;;;;;;6209850;23;20004;-85
2023/05/29 05:37:30;;;;;;;34.80;17.05;;;;;;;;;;6184955;23;20009;-83
2023/05/29 05:39:58;;;;;;;33.78;15.85;;;;;;;;;;6161934;23;20283;-84
2023/05/29 05:42:26;;;;;;;40.22;16.52;;;;;;;;;;6165107;23;20028;-85
2023/05/29 05:44:52;;;;;;;40.70;16.45;;;;;;;;;;6167036;23;20060;-87
2023/05/29 05:47:18;;;;;;;30.40;15.57;;;;;;;;;;6168860;23;20032;-84
2023/05/29 05:49:43;;;;;;;37.92;16.02;;;;;;;;;;6189183;23;20008;-85
2023/05/29 05:52:12;;;;;;;28.55;12.75;;;;;;;;;;6189727;23;20058;-84
2023/05/29 05:54:38;;;;;;;34.43;12.13;;;;;;;;;;6193184;23;20001;-84
2023/05/29 05:57:04;;;;;;;26.88;11.68;;;;;;;;;;6212869;23;20236;-82
2023/05/29 05:59:29;;;;;;;31.60;12.02;;;;;;;;;;6215666;23;20004;-83
2023/05/29 06:01:55;;;;;;;23.50;11.45;;;;;;;;;;6166121;23;20360;-85
2023/05/29 06:04:20;;;;;;;24.48;12.13;;;;;;;;;;6187986;23;20023;-85
2023/05/29 06:06:46;;;;;;;27.63;11.95;;;;;;;;;;6190253;23;20000;-84
2023/05/29 06:09:11;;;;;;;24.85;10.80;;;;;;;;;;6139320;23;20392;-85
2023/05/29 06:11:37;;;;;;;24.63;10.75;;;;;;;;;;6163857;23;20009;-84
2023/05/29 06:14:15;;;;;;;24.08;11.18;;;;;;;;;;6214935;23;20000;-83
2023/05/29 06:16:40;;;;;;;24.23;10.50;;;;;;;;;;6150490;23;20028;-84
2023/05/29 06:19:15;;;;;;;16.90;10.57;;;;;;;;;;6195876;23;20012;-86
2023/05/29 06:21:41;;;;;;;20.92;10.35;;;;;;;;;;6205092;23;20005;-86
2023/05/29 06:24:07;;;;;;;19.02;11.25;;;;;;;;;;6186259;23;20001;-86
2023/05/29 06:26:32;;;;;;;19.38;10.18;;;;;;;;;;6186207;23;20002;-87
2023/05/29 06:29:01;;;;;;;15.00;9.07;;;;;;;;;;6212362;23;20020;-87
2023/05/29 06:31:26;;;;;;;22.83;10.77;;;;;;;;;;6208304;23;20016;-85
2023/05/29 06:33:54;;;;;;;18.77;10.55;;;;;;;;;;6209287;23;20042;-85
2023/05/29 06:36:54;;;;;;;21.92;10.35;;;;;;;;;;6202913;23;20009;-84
2023/05/29 06:39:20;;;;;;;;;;;;;;;;;;6204500;23;20005;-85
2023/05/29 06:41:46;;;;;;;30.60;12.38;;;;;;;;;;6217973;23;19950;-84
2023/05/29 06:44:45;;;;;;;25.67;11.73;;;;;;;;;;6139110;23;20011;-86
2023/05/29 06:47:11;;;;;;;30.38;12.20;;;;;;;;;;6188741;23;20009;-84
2023/05/29 06:49:37;;;;;;;20.75;11.35;;;;;;;;;;6182502;23;20391;-82
2023/05/29 06:52:02;;;;;;;28.05;11.60;;;;;;;;;;6159061;23;20060;-79
2023/05/29 06:54:28;;;;;;;26.05;12.30;;;;;;;;;;6181086;23;20020;-84
2023/05/29 06:56:56;;;;;;;27.30;11.95;;;;;;;;;;6189313;23;20032;-84
2023/05/29 06:59:27;;;;;;;35.30;13.40;;;;;;;;;;6179642;23;20432;-81
2023/05/29 07:01:53;;;;;;;23.73;11.38;;;;;;;;;;6160316;23;20063;-80
2023/05/29 07:04:20;;;;;;;22.90;11.88;;;;;;;;;;6184760;23;20008;-80
2023/05/29 07:06:48;;;;;;;27.08;12.48;;;;;;;;;;6188092;23;20554;-78
2023/05/29 07:09:13;;;;;;;21.10;11.35;;;;;;;;;;6211156;23;20329;-78
2023/05/29 07:11:39;;;;;;;27.05;12.38;;;;;;;;;;6193160;23;20056;-80
2023/05/29 07:14:04;;;;;;;22.85;10.98;;;;;;;;;;6203940;23;20035;-84
2023/05/29 07:16:30;;;;;;;28.35;11.20;;;;;;;;;;6211218;23;20005;-83
2023/05/29 07:18:56;;;;;;;20.90;10.43;;;;;;;;;;6161703;23;20000;-83
2023/05/29 07:21:21;;;;;;;17.77;10.60;;;;;;;;;;6234695;23;20069;-80
2023/05/29 07:23:47;;;;;;;20.23;11.30;;;;;;;;;;6185407;23;20356;-84
2023/05/29 07:26:12;;;;;;;22.30;10.80;;;;;;;;;;6208182;23;20042;-85
2023/05/29 07:28:38;;;;;;;21.90;11.80;;;;;;;;;;6222112;23;20004;-80
2023/05/29 07:31:04;;;;;;;28.92;10.48;;;;;;;;;;6197292;23;20011;-82
2023/05/29 07:33:29;;;;;;;21.08;11.15;;;;;;;;;;6187696;23;20028;-81
2023/05/29 07:35:55;;;;;;;18.92;10.75;;;;;;;;;;6191114;23;20011;-79
2023/05/29 07:38:21;;;;;;;24.35;10.73;;;;;;;;;;6219672;23;19996;-82
2023/05/29 07:40:46;;;;;;;21.40;10.85;;;;;;;;;;6230992;23;20012;-83
2023/05/29 07:43:12;;;;;;;20.83;9.82;;;;;;;;;;6225132;23;19988;-83
2023/05/29 07:45:37;;;;;;;18.55;10.55;;;;;;;;;;6229218;23;20008;-82
2023/05/29 07:48:02;;;;;;;25.75;10.85;;;;;;;;;;6203083;23;19988;-84
2023/05/29 07:50:34;;;;;;;19.42;10.48;;;;;;;;;;6202604;23;20329;-81
2023/05/29 07:53:00;;;;;;;21.52;11.10;;;;;;;;;;6172623;23;20556;-82
2023/05/29 07:55:26;;;;;;;20.92;11.02;;;;;;;;;;6216804;23;20004;-80
2023/05/29 07:57:51;;;;;;;22.33;11.45;;;;;;;;;;6222653;23;20064;-82
2023/05/29 08:00:18;;;;;;;20.20;11.60;;;;;;;;;;6218170;23;20035;-83
2023/05/29 08:02:49;;;;;;;21.58;11.13;;;;;;;;;;6197394;23;20023;-81
2023/05/29 08:05:16;;;;;;;21.85;12.27;;;;;;;;;;6164266;23;20107;-82
2023/05/29 08:07:42;;;;;;;26.90;11.75;;;;;;;;;;6192085;23;20038;-80
2023/05/29 08:10:08;;;;;;;20.88;12.05;;;;;;;;;;6225867;23;20015;-82
2023/05/29 08:12:35;;;;;;;23.52;11.60;;;;;;;;;;6199911;23;20388;-81
2023/05/29 08:15:01;;;;;;;23.42;11.20;;;;;;;;;;6221232;23;20009;-82
2023/05/29 08:17:27;;;;;;;25.05;11.75;;;;;;;;;;6222843;23;20004;-83
2023/05/29 08:19:53;;;;;;;25.67;12.25;;;;;;;;;;6198001;23;19996;-81
2023/05/29 08:22:18;;;;;;;21.33;11.65;;;;;;;;;;6224868;23;20000;-82
2023/05/29 08:24:44;;;;;;;21.00;11.50;;;;;;;;;;6193992;23;20001;-83
2023/05/29 08:27:09;;;;;;;19.85;12.10;;;;;;;;;;6215817;23;20032;-84
2023/05/29 08:29:36;;;;;;;27.02;12.05;;;;;;;;;;6222553;23;20015;-84
2023/05/29 08:32:02;;;;;;;28.00;12.77;;;;;;;;;;6150501;23;20009;-82
2023/05/29 08:34:28;;;;;;;32.08;11.30;;;;;;;;;;6194078;23;20382;-83
2023/05/29 08:36:55;;;;;;;20.75;11.45;;;;;;;;;;6188472;23;20428;-83
2023/05/29 08:39:20;;;;;;;22.33;11.68;;;;;;;;;;6221345;23;20426;-83
2023/05/29 08:41:48;;;;;;;23.95;11.73;;;;;;;;;;6215880;23;20021;-83
2023/05/29 08:44:14;;;;;;;20.85;11.65;;;;;;;;;;6219764;23;20004;-82
2023/05/29 08:46:40;;;;;;;21.27;11.32;;;;;;;;;;6189545;23;20016;-83
2023/05/29 08:49:05;;;;;;;17.95;11.07;;;;;;;;;;6190119;23;20080;-83
2023/05/29 08:51:37;;;;;;;18.75;10.40;;;;;;;;;;6164819;23;20012;-82
2023/05/29 08:54:02;;;;;;;17.10;10.70;;;;;;;;;;6165237;23;20028;-83
2023/05/29 08:56:28;;;;;;;17.65;10.85;;;;;;;;;;6193100;23;20007;-83
2023/05/29 08:58:53;;;;;;;20.05;11.55;;;;;;;;;;6204901;23;20087;-83
2023/05/29 09:01:20;;;;;;;15.48;9.70;;;;;;;;;;6204683;23;20004;-81
2023/05/29 09:03:45;;;;;;;16.02;10.45;;;;;;;;;;6198039;23;20009;-83
2023/05/29 09:06:11;;;;;;;19.88;10.70;;;;;;;;;;6192559;23;20012;-82
2023/05/29 09:08:37;;;;;;;16.45;10.95;;;;;;;;;;6224485;23;20064;-82
2023/05/29 09:11:05;;;;;;;15.63;9.68;;;;;;;;;;6192377;23;20067;-82
2023/05/29 09:13:31;;;;;;;14.02;9.45;;;;;;;;;;6216239;23;20004;-82
2023/05/29 09:15:58;;;;;;;13.73;9.68;;;;;;;;;;6188739;23;20016;-81
2023/05/29 09:18:24;;;;;;;13.32;8.65;;;;;;;;;;6216957;23;20001;-81
2023/05/29 09:20:49;;;;;;;17.67;8.43;;;;;;;;;;6161791;23;20063;-82
2023/05/29 09:23:14;;;;;;;15.02;7.95;;;;;;;;;;6140374;23;20019;-82
2023/05/29 09:25:52;;;;;;;15.35;7.70;;;;;;;;;;6188792;23;20062;-83
2023/05/29 09:28:18;;;;;;;14.82;7.65;;;;;;;;;;6191932;23;20001;-83
2023/05/29 09:30:44;;;;;;;14.35;7.30;;;;;;;;;;6166364;23;20012;-83
2023/05/29 09:33:11;;;;;;;13.80;7.90;;;;;;;;;;6164464;23;20005;-83
2023/05/29 09:35:40;;;;;;;12.95;7.93;;;;;;;;;;6217156;23;20008;-81
2023/05/29 09:38:06;;;;;;;16.00;8.18;;;;;;;;;;6164517;23;20424;-81
2023/05/29 09:40:40;;;;;;;13.88;8.45;;;;;;;;;;6188211;23;20392;-82
2023/05/29 09:43:13;;;;;;;15.57;8.35;;;;;;;;;;6212228;23;20503;-81
2023/05/29 09:45:40;;;;;;;11.88;8.57;;;;;;;;;;6212741;23;20008;-82
2023/05/29 09:48:12;;;;;;;14.45;9.43;;;;;;;;;;6212419;23;20008;-84
2023/05/29 09:50:37;;;;;;;14.85;9.27;;;;;;;;;;6161698;23;20008;-83
2023/05/29 09:53:19;;;;;;;17.08;10.30;;;;;;;;;;6213581;23;20015;-83
2023/05/29 09:55:48;;;;;;;16.92;10.07;;;;;;;;;;6183576;23;20001;-84
2023/05/29 09:58:14;;;;;;;16.98;10.77;;;;;;;;;;6158261;23;20010;-80
2023/05/29 10:00:44;;;;;;;15.73;10.30;;;;;;;;;;6210854;23;20035;-81
2023/05/29 10:03:11;;;;;;;;;;;;;;;;;;6135944;23;20016;-82
2023/05/29 10:05:40;;;;;;;18.85;10.57;;;;;;;;;;6183185;23;20335;-81
2023/05/29 10:08:18;;;;;;;15.38;10.23;;;;;;;;;;6209413;23;20000;-83
2023/05/29 10:10:45;;;;;;;24.67;10.88;;;;;;;;;;6184979;23;20012;-83
2023/05/29 10:13:14;;;;;;;21.10;10.77;;;;;;;;;;6182718;23;20253;-83
2023/05/29 10:15:50;;;;;;;17.10;11.18;;;;;;;;;;6210661;23;20028;-83
2023/05/29 10:18:37;;;;;;;21.75;10.95;;;;;;;;;;6160336;23;20083;-82
2023/05/29 10:21:02;;;;;;;16.80;10.77;;;;;;;;;;6160051;23;20046;-82
2023/05/29 10:23:28;;;;;;;17.90;10.50;;;;;;;;;;6184136;23;20008;-82
2023/05/29 10:26:01;;;;;;;16.98;10.65;;;;;;;;;;6161242;23;20428;-86
2023/05/29 10:28:27;;;;;;;16.48;9.68;;;;;;;;;;6163976;23;20112;-86
2023/05/29 10:31:46;;;;;;;16.65;9.63;;;;;;;;;;6135998;23;20048;-82
2023/05/29 10:34:26;;;;;;;15.27;9.68;;;;;;;;;;6045654;23;20097;-93
2023/05/29 10:37:00;;;;;;;19.70;9.60;;;;;;;;;;6016899;23;20030;-84
2023/05/29 10:39:25;;;;;;;14.93;10.00;;;;;;;;;;6013618;23;20055;-83
2023/05/29 10:41:51;;;;;;;14.60;9.32;;;;;;;;;;6049858;23;20013;-82
2023/05/29 10:44:32;;;;;;;14.27;9.18;;;;;;;;;;6213166;23;20005;-83
2023/05/29 10:47:01;;;;;;;16.63;9.63;;;;;;;;;;6210756;23;20336;-83
2023/05/29 10:49:28;;;;;;;19.38;8.90;;;;;;;;;;6184640;23;20063;-81
2023/05/29 10:51:54;;;;;;;16.50;9.95;;;;;;;;;;6183991;23;20004;-79
2023/05/29 10:54:21;;;;;;;15.40;9.27;;;;;;;;;;6211410;23;20062;-81
2023/05/29 10:56:58;;;;;;;18.92;9.80;;;;;;;;;;6210099;23;20008;-82
2023/05/29 10:59:27;;;;;;;14.90;9.05;;;;;;;;;;6158630;23;20026;-81
2023/05/29 11:01:53;;;;;;;13.25;9.13;;;;;;;;;;6159674;23;20447;-81
2023/05/29 11:04:22;;;;;;;14.70;8.35;;;;;;;;;;6159596;23;19996;-80
2023/05/29 11:06:48;;;;;;;14.23;7.97;;;;;;;;;;6211459;23;20062;-83
2023/05/29 11:09:30;;;;;;;13.68;8.48;;;;;;;;;;6159782;23;20395;-81
2023/05/29 11:12:32;;;;;;;15.63;8.88;;;;;;;;;;6159797;23;20009;-82
2023/05/29 11:15:05;;;;;;;14.05;8.15;;;;;;;;;;6157630;23;20012;-81
2023/05/29 11:17:37;;;;;;;14.77;8.07;;;;;;;;;;6211281;23;20154;-81
2023/05/29 11:20:07;;;;;;;17.30;8.85;;;;;;;;;;6186868;23;20004;-82
2023/05/29 11:22:37;;;;;;;;;;;;;;;;;;6161093;23;20075;-84
2023/05/29 11:25:04;;;;;;;10.10;7.75;;;;;;;;;;6184783;23;19943;-82
2023/05/29 11:27:30;;;;;;;12.07;7.85;;;;;;;;;;6135898;23;20442;-82
2023/05/29 11:29:56;;;;;;;11.48;7.82;;;;;;;;;;6135658;23;20009;-82
2023/05/29 11:32:21;;;;;;;12.25;8.02;;;;;;;;;;6186278;23;20432;-82
2023/05/29 11:34:47;;;;;;;13.45;7.97;;;;;;;;;;6161618;23;20008;-83
2023/05/29 11:37:12;;;;;;;26.58;15.02;;;;;;;;;;6160942;23;20083;-83
2023/05/29 11:39:38;;;;;;;15.60;8.32;;;;;;;;;;6186601;23;20012;-83
2023/05/29 11:42:03;;;;;;;15.60;8.10;;;;;;;;;;6162126;23;20001;-85
2023/05/29 11:44:29;;;;;;;16.20;8.20;;;;;;;;;;6161035;23;20394;-82
2023/05/29 11:47:05;;;;;;;14.60;8.32;;;;;;;;;;6161716;23;20008;-82
2023/05/29 11:49:36;;;;;;;14.85;8.27;;;;;;;;;;6162728;23;20024;-85
2023/05/29 11:52:12;;;;;;;13.93;8.43;;;;;;;;;;6187642;23;20001;-82
2023/05/29 11:54:37;;;;;;;19.27;8.80;;;;;;;;;;6213938;23;20028;-82
2023/05/29 11:57:05;;;;;;;18.23;9.20;;;;;;;;;;6162472;23;20606;-84
2023/05/29 11:59:33;;;;;;;16.90;8.70;;;;;;;;;;6212878;23;20146;-82
2023/05/29 12:02:02;;;;;;;14.93;8.18;;;;;;;;;;6136908;23;20024;-82
2023/05/29 12:04:28;;;;;;;16.38;8.63;;;;;;;;;;6184374;23;20000;-81
2023/05/29 12:06:53;;;;;;;16.75;8.55;;;;;;;;;;6162155;23;20012;-83
2023/05/29 12:09:28;;;;;;;18.88;11.02;;;;;;;;;;6161946;23;20343;-83
2023/05/29 12:12:04;;;;;;;12.60;8.00;;;;;;;;;;6163116;23;20091;-83
2023/05/29 12:14:29;;;;;;;12.07;7.80;;;;;;;;;;6164174;23;20008;-82
2023/05/29 12:16:55;;;;;;;16.23;8.15;;;;;;;;;;6186906;23;20007;-83
2023/05/29 12:19:20;;;;;;;13.02;8.45;;;;;;;;;;6213348;23;20001;-82
2023/05/29 12:21:46;;;;;;;15.00;7.35;;;;;;;;;;6162757;23;20009;-82
2023/05/29 12:24:11;;;;;;;12.52;7.85;;;;;;;;;;6137507;23;20063;-84
2023/05/29 12:26:37;;;;;;;13.40;7.10;;;;;;;;;;6187010;23;20262;-84
2023/05/29 12:29:04;;;;;;;15.45;7.40;;;;;;;;;;6213849;23;20005;-83
2023/05/29 12:31:30;;;;;;;14.27;7.38;;;;;;;;;;6163197;23;20000;-83
2023/05/29 12:34:12;;;;;;;13.95;8.65;;;;;;;;;;6162443;23;20391;-82
2023/05/29 12:36:40;;;;;;;11.77;7.85;;;;;;;;;;6164340;23;20008;-82
2023/05/29 12:39:09;;;;;;;15.15;7.40;;;;;;;;;;6162646;23;20027;-84
2023/05/29 12:41:35;;;;;;;13.60;7.32;;;;;;;;;;6162676;23;20009;-82
2023/05/29 12:44:02;;;;;;;12.10;7.28;;;;;;;;;;6163340;23;19997;-82
2023/05/29 12:46:28;;;;;;;14.35;7.50;;;;;;;;;;6160840;23;20009;-83
2023/05/29 12:48:54;;;;;;;10.63;7.22;;;;;;;;;;6160676;23;20004;-82
2023/05/29 12:51:26;;;;;;;16.30;7.25;;;;;;;;;;6212456;23;20435;-83
2023/05/29 12:53:54;;;;;;;11.60;6.57;;;;;;;;;;6185864;23;20139;-83
2023/05/29 12:56:26;;;;;;;14.98;7.57;;;;;;;;;;6161869;23;20012;-83
2023/05/29 12:58:51;;;;;;;11.05;7.30;;;;;;;;;;6187477;23;20009;-83
2023/05/29 13:01:17;;;;;;;12.82;7.13;;;;;;;;;;6163036;23;20071;-83
2023/05/29 13:03:42;;;;;;;11.43;7.00;;;;;;;;;;6163274;23;20012;-85
2023/05/29 13:06:10;;;;;;;9.05;6.53;;;;;;;;;;6161238;23;20047;-81
2023/05/29 13:08:35;;;;;;;18.90;6.68;;;;;;;;;;6163789;23;20031;-81
2023/05/29 13:11:01;;;;;;;11.35;6.85;;;;;;;;;;6163453;23;20416;-82
2023/05/29 13:13:26;;;;;;;12.20;6.85;;;;;;;;;;6214960;23;20034;-81
2023/05/29 13:15:52;;;;;;;11.85;6.75;;;;;;;;;;6163449;23;20447;-81
2023/05/29 13:18:17;;;;;;;13.30;6.80;;;;;;;;;;6163672;23;20084;-82
2023/05/29 13:20:43;;;;;;;11.85;6.75;;;;;;;;;;6188371;23;20009;-83
2023/05/29 13:23:08;;;;;;;14.55;6.45;;;;;;;;;;6188377;23;20012;-83
2023/05/29 13:25:34;;;;;;;9.60;6.85;;;;;;;;;;6214732;23;19997;-84
2023/05/29 13:27:59;;;;;;;12.02;6.88;;;;;;;;;;6139229;23;20044;-83
2023/05/29 13:30:25;;;;;;;12.65;6.38;;;;;;;;;;6163541;23;20321;-82
2023/05/29 13:32:52;;;;;;;11.00;6.50;;;;;;;;;;6139039;23;20527;-83
2023/05/29 13:35:17;;;;;;;12.60;5.90;;;;;;;;;;6163870;23;20357;-82
2023/05/29 13:37:43;;;;;;;10.52;6.72;;;;;;;;;;6188346;23;20034;-84
2023/05/29 13:40:11;;;;;;;11.75;6.45;;;;;;;;;;6188318;23;20079;-81
2023/05/29 13:42:36;;;;;;;11.88;6.30;;;;;;;;;;6188366;23;20059;-82
2023/05/29 13:45:02;;;;;;;8.90;5.95;;;;;;;;;;6188454;23;20008;-83
2023/05/29 13:47:32;;;;;;;10.52;6.60;;;;;;;;;;6137873;23;20002;-83
2023/05/29 13:49:57;;;;;;;;;;;;;;;;;;6141445;23;20038;-82
2023/05/29 13:52:25;;;;;;;13.27;6.25;;;;;;;;;;6163268;23;20224;-82
2023/05/29 13:54:51;;;;;;;18.83;6.60;;;;;;;;;;6188741;23;20079;-80
2023/05/29 13:57:16;;;;;;;9.95;5.88;;;;;;;;;;6188114;23;20108;-82
2023/05/29 13:59:41;;;;;;;13.55;6.65;;;;;;;;;;6188215;23;20000;-82
2023/05/29 14:02:08;;;;;;;9.18;5.93;;;;;;;;;;6214241;23;20008;-82
2023/05/29 14:04:33;;;;;;;10.13;6.38;;;;;;;;;;6163613;23;20341;-81
2023/05/29 14:06:59;;;;;;;9.52;6.30;;;;;;;;;;6214426;23;20027;-82
2023/05/29 14:09:27;;;;;;;12.55;6.25;;;;;;;;;;6212403;23;20439;-83
2023/05/29 14:12:02;;;;;;;9.98;5.75;;;;;;;;;;6139816;23;20004;-82
2023/05/29 14:14:27;;;;;;;11.82;6.20;;;;;;;;;;6187878;23;20071;-82
2023/05/29 14:16:54;;;;;;;10.57;6.30;;;;;;;;;;6162849;23;20391;-83
2023/05/29 14:19:20;;;;;;;8.90;6.25;;;;;;;;;;6138893;23;20363;-82
2023/05/29 14:21:45;;;;;;;8.55;5.90;;;;;;;;;;6188452;23;20071;-83
2023/05/29 14:24:12;;;;;;;11.40;6.25;;;;;;;;;;6163024;23;19997;-82
2023/05/29 14:26:38;;;;;;;10.18;6.03;;;;;;;;;;6187743;23;20005;-83